Time;durP1;ratioP1;P1;durP2;ratioP2;P2;SDS_P1;SDS_P2;PMS_P1;PMS_P2;Temp;Humidity;BMP_temperature;BMP_pressure;BME280_temperature;BME280_humidity;BME280_pressure;Samples;Min_cycle;Max_cycle;Signal;HPM_P1;HPM_P2
2020/12/30 00:01:08;;;;;;;57.73;30.37;;;;;;;6.36;100.00;99650.42;1778019;79;20997;-54
2020/12/30 00:03:36;;;;;;;63.05;32.33;;;;;;;6.37;100.00;99652.16;1775326;79;21328;-49
2020/12/30 00:09:08;;;;;;;73.33;35.83;;;;;;;6.32;100.00;99659.48;1729834;79;23330;-51
2020/12/30 00:11:37;;;;;;;80.62;37.90;;;;;;;6.19;100.00;99662.59;1690617;83;20982;-50
2020/12/30 00:14:04;;;;;;;94.52;44.53;;;;;;;6.11;100.00;99668.65;1691970;82;22119;-51
2020/12/30 00:16:32;;;;;;;97.20;45.05;;;;;;;6.05;100.00;99678.23;1690363;82;21048;-50
2020/12/30 00:19:00;;;;;;;86.63;41.75;;;;;;;6.02;100.00;99679.69;1690119;83;21600;-50
2020/12/30 00:21:28;;;;;;;73.78;36.25;;;;;;;6.03;100.00;99677.41;1691373;83;21612;-57
2020/12/30 00:23:56;;;;;;;61.30;31.80;;;;;;;6.04;100.00;99675.14;1690693;83;21101;-58
2020/12/30 00:26:24;;;;;;;65.47;32.13;;;;;;;6.07;100.00;99683.52;1692036;83;22266;-58
2020/12/30 00:28:52;;;;;;;56.88;30.95;;;;;;;6.11;100.00;99683.38;1690285;83;21033;-57
2020/12/30 00:31:20;;;;;;;64.85;32.85;;;;;;;6.15;100.00;99686.83;1690473;83;21002;-57
2020/12/30 00:33:48;;;;;;;52.60;28.75;;;;;;;6.20;100.00;99677.72;1690702;83;21588;-56
2020/12/30 00:36:16;;;;;;;46.48;26.27;;;;;;;6.21;100.00;99674.11;1690592;83;21013;-58
2020/12/30 00:38:44;;;;;;;47.60;25.35;;;;;;;6.19;100.00;99670.62;1690677;83;22273;-56
2020/12/30 00:41:14;;;;;;;38.67;22.48;;;;;;;6.18;100.00;99671.55;1690103;82;21031;-56
2020/12/30 00:43:42;;;;;;;51.80;28.02;;;;;;;6.22;100.00;99675.85;1690508;82;21005;-56
2020/12/30 00:46:18;;;;;;;55.98;30.45;;;;;;;6.16;100.00;99681.42;1691476;82;21176;-56
2020/12/30 00:48:48;;;;;;;53.98;30.27;;;;;;;6.07;100.00;99681.72;1691074;82;21206;-56
2020/12/30 00:51:16;;;;;;;61.83;33.88;;;;;;;5.97;100.00;99678.49;1692364;83;22338;-55
2020/12/30 00:53:45;;;;;;;51.15;29.67;;;;;;;5.89;100.00;99675.61;1690379;83;21614;-56
2020/12/30 00:56:16;;;;;;;58.97;33.13;;;;;;;5.82;100.00;99676.73;1692507;83;21117;-57
2020/12/30 00:58:44;;;;;;;64.37;33.73;;;;;;;5.77;100.00;99676.42;1665056;83;21164;-56
2020/12/30 01:01:15;;;;;;;59.65;31.68;;;;;;;5.76;100.00;99677.81;1696727;83;26812;-58
2020/12/30 01:03:55;;;;;;;60.90;30.77;;;;;;;5.81;100.00;99681.69;1847231;75;22864;-57
2020/12/30 01:06:24;;;;;;;61.60;34.25;;;;;;;5.75;100.00;99686.30;1759926;78;21017;-57
2020/12/30 01:08:51;;;;;;;57.27;30.65;;;;;;;5.74;100.00;99685.87;1760470;79;21624;-58
2020/12/30 01:11:27;;;;;;;63.45;33.28;;;;;;;5.77;100.00;99683.57;1795711;78;21310;-56
2020/12/30 01:13:57;;;;;;;64.85;33.60;;;;;;;5.75;100.00;99680.95;1759880;79;20949;-56
2020/12/30 01:16:33;;;;;;;57.98;30.25;;;;;;;5.77;100.00;99678.22;1817149;76;22065;-56
2020/12/30 01:19:01;;;;;;;63.70;31.77;;;;;;;5.71;100.00;99679.76;1769169;77;20962;-56
2020/12/30 01:21:29;;;;;;;58.13;30.80;;;;;;;5.70;100.00;99681.99;1743676;79;21383;-57
2020/12/30 01:23:57;;;;;;;66.87;34.95;;;;;;;5.70;100.00;99680.22;1743730;79;21041;-57
2020/12/30 01:26:25;;;;;;;61.48;32.48;;;;;;;5.72;100.00;99682.38;1740466;79;20961;-55
2020/12/30 01:28:53;;;;;;;71.10;34.98;;;;;;;5.73;100.00;99693.48;1739848;79;20977;-56
2020/12/30 01:31:30;;;;;;;59.00;32.08;;;;;;;5.74;100.00;99689.88;1741959;79;20983;-55
2020/12/30 01:33:58;;;;;;;58.23;31.42;;;;;;;5.73;100.00;99690.81;1745736;79;21363;-56
2020/12/30 01:36:26;;;;;;;54.25;31.40;;;;;;;5.76;100.00;99687.18;1745239;79;21029;-56
2020/12/30 01:38:54;;;;;;;47.75;28.42;;;;;;;5.77;100.00;99693.81;1754022;79;21017;-57
2020/12/30 01:41:23;;;;;;;48.10;27.58;;;;;;;5.82;100.00;99691.45;1743638;79;21128;-56
2020/12/30 01:44:07;;;;;;;43.80;24.20;;;;;;;5.88;100.00;99693.94;1747453;79;20993;-57
2020/12/30 01:46:41;;;;;;;42.90;25.08;;;;;;;5.93;100.00;99689.34;1746596;79;21581;-58
2020/12/30 01:49:19;;;;;;;48.58;27.70;;;;;;;5.94;100.00;99681.72;1748406;79;21136;-59
2020/12/30 01:51:55;;;;;;;58.65;33.18;;;;;;;6.02;100.00;99681.89;1865955;74;22737;-57
2020/12/30 01:54:23;;;;;;;78.45;40.38;;;;;;;5.98;100.00;99679.36;1827321;75;21505;-58
2020/12/30 01:56:52;;;;;;;91.50;44.23;;;;;;;5.94;100.00;99673.22;1791100;78;21349;-58
2020/12/30 01:59:20;;;;;;;87.33;43.23;;;;;;;5.94;100.00;99675.03;1822488;77;21011;-58
2020/12/30 02:02:05;;;;;;;82.17;43.15;;;;;;;5.91;100.00;99665.31;1822478;77;21041;-58
2020/12/30 02:04:42;;;;;;;94.52;50.25;;;;;;;5.91;100.00;99661.70;1822584;77;21546;-58
2020/12/30 02:07:19;;;;;;;85.67;48.28;;;;;;;5.94;100.00;99667.00;1816001;76;22709;-57
2020/12/30 02:09:47;;;;;;;83.25;43.33;;;;;;;5.86;100.00;99673.92;1819559;76;20973;-57
2020/12/30 02:12:15;;;;;;;64.17;35.83;;;;;;;5.83;100.00;99678.02;1759875;78;21261;-58
2020/12/30 02:14:44;;;;;;;66.25;36.28;;;;;;;5.82;100.00;99680.75;1761733;80;21012;-58
2020/12/30 02:17:13;;;;;;;60.92;32.23;;;;;;;5.81;100.00;99677.67;1789714;78;21057;-58
2020/12/30 02:19:42;;;;;;;54.18;31.33;;;;;;;5.78;100.00;99680.84;1789601;78;21407;-58
2020/12/30 02:22:10;;;;;;;51.73;31.30;;;;;;;5.77;100.00;99669.73;1761824;80;21569;-58
2020/12/30 02:24:38;;;;;;;50.73;29.77;;;;;;;5.76;100.00;99669.32;1735956;80;21208;-58
2020/12/30 02:27:07;;;;;;;53.98;30.95;;;;;;;5.73;100.00;99664.05;1762342;80;21005;-57
2020/12/30 02:29:35;;;;;;;45.00;27.50;;;;;;;5.70;100.00;99664.17;1761782;80;21124;-58
2020/12/30 02:32:03;;;;;;;49.48;30.55;;;;;;;5.67;100.00;99664.25;1761960;80;21175;-58
2020/12/30 02:34:31;;;;;;;44.70;28.50;;;;;;;5.64;100.00;99656.31;1762278;80;21185;-56
2020/12/30 02:36:59;;;;;;;48.08;29.35;;;;;;;5.62;100.00;99659.51;1789230;78;21620;-55
2020/12/30 02:39:28;;;;;;;55.63;31.07;;;;;;;5.63;100.00;99659.91;1765497;78;21016;-56
2020/12/30 02:41:56;;;;;;;54.08;31.80;;;;;;;5.63;100.00;99656.37;1789527;78;21226;-57
2020/12/30 02:44:24;;;;;;;58.78;33.73;;;;;;;5.63;100.00;99667.94;1790569;78;21130;-56
2020/12/30 02:46:52;;;;;;;62.43;33.33;;;;;;;5.62;100.00;99668.88;1763437;78;21142;-56
2020/12/30 02:49:20;;;;;;;53.33;32.10;;;;;;;5.61;100.00;99669.80;1789974;78;21374;-57
2020/12/30 02:51:48;;;;;;;55.80;31.62;;;;;;;5.59;100.00;99658.25;1760321;78;21000;-57
2020/12/30 02:54:16;;;;;;;64.47;35.40;;;;;;;5.57;100.00;99665.46;1789344;78;21132;-58
2020/12/30 02:56:44;;;;;;;56.68;33.05;;;;;;;5.55;100.00;99661.98;1789894;78;21521;-57
2020/12/30 02:59:12;;;;;;;52.93;30.32;;;;;;;5.53;100.00;99659.78;1766856;79;21000;-57
2020/12/30 03:01:44;;;;;;;52.75;31.23;;;;;;;5.52;100.00;99655.37;1794162;78;21374;-56
2020/12/30 03:04:19;;;;;;;54.20;32.23;;;;;;;5.58;100.00;99657.84;1824293;76;23330;-57
2020/12/30 03:06:48;;;;;;;61.18;35.15;;;;;;;5.52;100.00;99662.05;1822160;77;21112;-57
2020/12/30 03:09:16;;;;;;;66.70;37.42;;;;;;;5.51;100.00;99660.31;1754163;79;21370;-58
2020/12/30 03:11:49;;;;;;;76.60;43.73;;;;;;;5.48;100.00;99655.05;1819584;77;21581;-58
2020/12/30 03:14:18;;;;;;;88.07;48.33;;;;;;;5.45;100.00;99653.36;1753352;79;21304;-57
2020/12/30 03:16:47;;;;;;;75.12;43.75;;;;;;;5.45;100.00;99652.48;1793737;77;21624;-57
2020/12/30 03:19:14;;;;;;;88.20;51.35;;;;;;;5.43;100.00;99655.22;1757195;79;20999;-57
2020/12/30 03:21:43;;;;;;;80.60;47.27;;;;;;;5.42;100.00;99655.23;1821944;77;21190;-57
2020/12/30 03:24:11;;;;;;;79.15;47.83;;;;;;;5.40;100.00;99655.76;1754566;79;21050;-57
2020/12/30 03:26:39;;;;;;;78.20;47.38;;;;;;;5.38;100.00;99645.55;1825287;77;21367;-56
2020/12/30 03:29:07;;;;;;;86.37;50.25;;;;;;;5.35;100.00;99642.98;1751864;79;21112;-58
2020/12/30 03:31:35;;;;;;;90.47;51.65;;;;;;;5.35;100.00;99647.00;1819455;77;21142;-55
2020/12/30 03:34:03;;;;;;;79.90;47.13;;;;;;;5.34;100.00;99639.45;1819604;77;21375;-57
2020/12/30 03:36:31;;;;;;;84.65;48.90;;;;;;;5.35;100.00;99640.31;1758217;79;21057;-56
2020/12/30 03:38:59;;;;;;;76.37;46.18;;;;;;;5.35;100.00;99645.66;1820091;77;20978;-57
2020/12/30 03:41:28;;;;;;;72.15;43.35;;;;;;;5.33;100.00;99642.17;1753874;79;20978;-59
2020/12/30 03:43:56;;;;;;;71.10;41.73;;;;;;;5.33;100.00;99635.02;1821338;77;21739;-58
2020/12/30 03:46:24;;;;;;;69.12;40.60;;;;;;;5.30;100.00;99631.56;1753294;79;22167;-50
2020/12/30 03:48:52;;;;;;;67.55;37.98;;;;;;;5.28;100.00;99638.30;1819588;77;21043;-50
2020/12/30 03:51:20;;;;;;;59.15;35.15;;;;;;;5.28;100.00;99636.09;1753562;79;21577;-51
2020/12/30 03:53:48;;;;;;;56.23;34.92;;;;;;;5.28;100.00;99638.77;1819812;77;21057;-51
2020/12/30 03:56:16;;;;;;;50.17;31.23;;;;;;;5.25;100.00;99633.91;1753141;79;21161;-51
2020/12/30 03:58:44;;;;;;;48.75;30.43;;;;;;;5.17;100.00;99633.28;1820895;76;21321;-51
2020/12/30 04:01:14;;;;;;;53.15;32.65;;;;;;;5.08;100.00;99640.69;1746696;79;21589;-51
2020/12/30 04:03:41;;;;;;;47.58;29.07;;;;;;;5.06;100.00;99644.76;1823375;77;21691;-50
2020/12/30 04:06:09;;;;;;;48.38;30.80;;;;;;;5.05;100.00;99642.98;1761439;78;21936;-50
2020/12/30 04:08:40;;;;;;;52.98;32.70;;;;;;;5.04;100.00;99648.38;1789829;78;20974;-50
2020/12/30 04:11:08;;;;;;;48.87;31.75;;;;;;;5.00;100.00;99639.56;1793500;78;21441;-50
2020/12/30 04:13:37;;;;;;;51.35;32.38;;;;;;;4.95;100.00;99640.16;1785902;78;21517;-50
2020/12/30 04:16:05;;;;;;;51.10;32.25;;;;;;;4.90;100.00;99639.41;1790692;79;21513;-51
2020/12/30 04:18:34;;;;;;;47.30;30.50;;;;;;;4.88;100.00;99641.27;1785692;79;21104;-50
2020/12/30 04:21:02;;;;;;;50.00;31.42;;;;;;;4.88;100.00;99643.94;1787333;79;21150;-51
2020/12/30 04:23:30;;;;;;;52.67;31.70;;;;;;;4.88;100.00;99643.94;1785332;79;21377;-51
2020/12/30 04:25:58;;;;;;;50.38;32.58;;;;;;;4.89;100.00;99647.02;1765462;79;21564;-52
2020/12/30 04:28:26;;;;;;;48.60;32.17;;;;;;;4.90;100.00;99654.11;1764849;79;21580;-50
2020/12/30 04:30:54;;;;;;;51.75;32.70;;;;;;;4.90;100.00;99658.12;1764195;79;21546;-51
2020/12/30 04:33:22;;;;;;;46.75;31.02;;;;;;;4.91;100.00;99658.56;1767647;79;21201;-51
2020/12/30 04:35:50;;;;;;;50.38;32.10;;;;;;;4.93;100.00;99663.39;1766752;79;21327;-51
2020/12/30 04:38:18;;;;;;;49.30;30.43;;;;;;;4.92;100.00;99665.65;1765855;79;21473;-51
2020/12/30 04:40:46;;;;;;;44.65;29.30;;;;;;;4.91;100.00;99659.89;1765276;79;21045;-51
2020/12/30 04:43:14;;;;;;;45.75;27.70;;;;;;;4.90;100.00;99656.78;1764153;79;21134;-50
2020/12/30 04:45:42;;;;;;;49.67;31.30;;;;;;;4.90;100.00;99660.79;1738053;80;21112;-51
2020/12/30 04:48:10;;;;;;;48.45;31.07;;;;;;;4.91;100.00;99661.23;1764605;79;21380;-52
2020/12/30 04:50:39;;;;;;;53.35;32.83;;;;;;;4.94;100.00;99661.12;1764188;80;21013;-50
2020/12/30 04:53:07;;;;;;;51.95;31.82;;;;;;;4.95;100.00;99652.18;1764245;79;21549;-50
2020/12/30 04:55:35;;;;;;;62.33;37.00;;;;;;;4.97;100.00;99661.05;1765054;79;21013;-50
2020/12/30 04:58:05;;;;;;;58.55;35.17;;;;;;;4.98;100.00;99665.47;1736222;80;21546;-51
2020/12/30 05:00:36;;;;;;;62.30;37.17;;;;;;;4.97;100.00;99660.59;1766076;79;22271;-50
2020/12/30 05:03:10;;;;;;;62.85;37.67;;;;;;;5.00;100.00;99663.61;1764052;79;21152;-52
2020/12/30 05:05:39;;;;;;;57.08;36.70;;;;;;;4.99;100.00;99667.21;1818779;77;21110;-51
2020/12/30 05:08:14;;;;;;;56.63;35.45;;;;;;;4.96;100.00;99667.32;1818540;77;20966;-51
2020/12/30 05:10:45;;;;;;;49.55;31.87;;;;;;;4.94;100.00;99655.78;1753372;79;21125;-50
2020/12/30 05:13:14;;;;;;;50.92;31.55;;;;;;;4.93;100.00;99652.23;1819050;77;21416;-50
2020/12/30 05:15:42;;;;;;;40.35;28.12;;;;;;;4.93;100.00;99643.34;1750223;79;21013;-51
2020/12/30 05:18:10;;;;;;;42.98;29.52;;;;;;;4.92;100.00;99638.47;1819449;77;21088;-51
2020/12/30 05:20:38;;;;;;;42.05;27.87;;;;;;;4.93;100.00;99642.02;1820273;77;20969;-51
2020/12/30 05:23:08;;;;;;;42.78;27.52;;;;;;;4.92;100.00;99646.95;1819470;77;21037;-52
2020/12/30 05:25:44;;;;;;;46.60;31.15;;;;;;;4.96;100.00;99658.84;1818391;76;22778;-51
2020/12/30 05:28:14;;;;;;;49.75;29.30;;;;;;;4.90;100.00;99662.12;1786545;77;21141;-50
2020/12/30 05:30:43;;;;;;;43.08;29.25;;;;;;;4.89;100.00;99660.38;1786009;77;21212;-50
2020/12/30 05:33:11;;;;;;;47.83;30.60;;;;;;;4.88;100.00;99669.32;1779077;79;21115;-50
2020/12/30 05:35:39;;;;;;;47.73;31.23;;;;;;;4.88;100.00;99668.86;1783422;77;21455;-51
2020/12/30 05:38:07;;;;;;;57.40;36.28;;;;;;;4.90;100.00;99666.13;1780757;77;21166;-50
2020/12/30 05:40:36;;;;;;;52.67;35.20;;;;;;;4.90;100.00;99664.80;1778893;77;21522;-51
2020/12/30 05:43:13;;;;;;;51.42;33.18;;;;;;;4.92;100.00;99673.67;1779806;79;21336;-51
2020/12/30 05:45:49;;;;;;;47.17;31.35;;;;;;;4.92;100.00;99673.67;1781668;77;20943;-51
2020/12/30 05:48:17;;;;;;;44.42;30.12;;;;;;;4.94;100.00;99679.83;1781001;77;20994;-51
2020/12/30 05:50:57;;;;;;;44.53;28.42;;;;;;;4.96;100.00;99686.03;1781613;77;21002;-51
2020/12/30 05:53:25;;;;;;;43.60;28.65;;;;;;;4.98;100.00;99681.50;1782413;77;20978;-50
2020/12/30 05:56:08;;;;;;;44.53;30.32;;;;;;;5.00;100.00;99679.65;1780429;77;21379;-50
2020/12/30 05:58:41;;;;;;;39.45;27.00;;;;;;;5.00;100.00;99679.65;1778939;77;21006;-53
2020/12/30 06:01:29;;;;;;;48.63;29.60;;;;;;;5.03;100.00;99683.59;1779614;77;20962;-49
2020/12/30 06:04:19;;;;;;;51.65;33.13;;;;;;;5.05;100.00;99688.41;1779543;77;21605;-50
2020/12/30 06:06:55;;;;;;;51.20;33.10;;;;;;;5.10;100.00;99678.47;1815770;76;22491;-50
2020/12/30 06:09:24;;;;;;;51.02;32.28;;;;;;;5.06;100.00;99684.84;1785150;79;20985;-51
2020/12/30 06:11:53;;;;;;;54.20;34.13;;;;;;;5.06;100.00;99692.86;1782102;79;21605;-50
2020/12/30 06:14:22;;;;;;;52.03;34.13;;;;;;;5.06;100.00;99690.19;1781753;78;21383;-51
2020/12/30 06:16:50;;;;;;;50.88;34.78;;;;;;;5.07;100.00;99697.28;1781849;79;21632;-50
2020/12/30 06:19:18;;;;;;;47.98;32.40;;;;;;;5.05;100.00;99693.76;1726304;80;21077;-52
2020/12/30 06:21:46;;;;;;;52.67;34.83;;;;;;;5.06;100.00;99698.64;1781492;79;20969;-51
2020/12/30 06:24:15;;;;;;;55.08;34.25;;;;;;;5.05;100.00;99707.12;1781510;79;21367;-50
2020/12/30 06:26:43;;;;;;;49.40;32.95;;;;;;;5.07;100.00;99701.29;1781992;79;21040;-51
2020/12/30 06:29:16;;;;;;;56.92;34.33;;;;;;;5.09;100.00;99704.78;1780376;79;21064;-50
2020/12/30 06:31:47;;;;;;;58.95;34.78;;;;;;;5.12;100.00;99698.03;1781150;79;20973;-53
2020/12/30 06:34:16;;;;;;;56.93;34.00;;;;;;;5.12;100.00;99703.37;1781347;79;21611;-53
2020/12/30 06:36:45;;;;;;;58.42;35.45;;;;;;;5.12;100.00;99695.36;1780284;79;21009;-51
2020/12/30 06:39:19;;;;;;;55.73;34.60;;;;;;;5.14;100.00;99690.83;1781416;79;21143;-51
2020/12/30 06:42:02;;;;;;;57.35;36.53;;;;;;;5.15;100.00;99697.92;1781305;79;21018;-51
2020/12/30 06:44:43;;;;;;;52.25;34.38;;;;;;;5.22;100.00;99704.86;1782777;76;22719;-52
2020/12/30 06:47:12;;;;;;;47.95;33.05;;;;;;;5.17;100.00;99700.58;1753063;79;20989;-52
2020/12/30 06:49:39;;;;;;;43.90;29.63;;;;;;;5.16;100.00;99694.78;1749776;79;21377;-51
2020/12/30 06:52:27;;;;;;;45.30;30.52;;;;;;;5.13;100.00;99686.41;1750223;79;21183;-52
2020/12/30 06:54:55;;;;;;;44.30;30.10;;;;;;;5.11;100.00;99687.36;1748868;79;21683;-52
2020/12/30 06:57:39;;;;;;;43.63;29.52;;;;;;;5.08;100.00;99687.00;1749232;79;20946;-51
2020/12/30 07:00:35;;;;;;;41.98;28.92;;;;;;;5.11;100.00;99676.20;1816210;76;22797;-51
2020/12/30 07:03:15;;;;;;;42.05;27.58;;;;;;;5.03;100.00;99680.91;1790034;77;20978;-51
2020/12/30 07:05:44;;;;;;;40.70;26.97;;;;;;;5.02;100.00;99664.47;1786429;77;21377;-52
2020/12/30 07:08:14;;;;;;;41.98;27.35;;;;;;;4.99;100.00;99668.55;1791101;77;21343;-51
2020/12/30 07:10:45;;;;;;;45.83;28.32;;;;;;;4.97;100.00;99669.06;1786557;77;20974;-51
2020/12/30 07:13:28;;;;;;;42.85;27.77;;;;;;;4.96;100.00;99665.98;1789509;77;20973;-52
2020/12/30 07:16:19;;;;;;;45.60;29.45;;;;;;;4.95;100.00;99657.52;1793213;77;21256;-52
2020/12/30 07:18:50;;;;;;;39.25;27.15;;;;;;;4.94;100.00;99661.12;1789343;77;22267;-51
2020/12/30 07:21:19;;;;;;;37.42;26.20;;;;;;;4.93;100.00;99656.70;1784662;77;20993;-51
2020/12/30 07:23:47;;;;;;;45.40;29.60;;;;;;;4.95;100.00;99665.55;1789805;77;21013;-50
2020/12/30 07:26:17;;;;;;;44.60;30.23;;;;;;;4.97;100.00;99662.39;1792083;77;21593;-46
2020/12/30 07:28:45;;;;;;;44.25;28.70;;;;;;;5.00;100.00;99666.28;1795857;77;21534;-48
2020/12/30 07:31:14;;;;;;;50.83;31.27;;;;;;;5.05;100.00;99677.72;1792266;77;22103;-47
2020/12/30 07:33:42;;;;;;;48.35;29.52;;;;;;;5.07;100.00;99675.90;1789229;78;21160;-47
2020/12/30 07:36:10;;;;;;;55.43;30.37;;;;;;;5.15;100.00;99669.85;1793501;77;21128;-47
2020/12/30 07:38:38;;;;;;;58.13;30.70;;;;;;;5.23;100.00;99666.51;1800510;77;21640;-47
2020/12/30 07:41:08;;;;;;;63.33;30.92;;;;;;;5.29;100.00;99664.57;1797116;77;20981;-48
2020/12/30 07:43:48;;;;;;;67.87;30.88;;;;;;;5.44;100.00;99668.13;1815323;76;22762;-48
2020/12/30 07:46:20;;;;;;;65.65;30.80;;;;;;;5.48;100.00;99671.09;1810478;78;21398;-44
2020/12/30 07:48:49;;;;;;;60.67;28.83;;;;;;;5.56;100.00;99669.53;1746996;80;21776;-45
2020/12/30 07:51:17;;;;;;;63.02;28.52;;;;;;;5.61;100.00;99672.48;1734358;80;21533;-45
2020/12/30 07:53:52;;;;;;;61.65;26.77;;;;;;;5.69;100.00;99675.77;1743121;80;21566;-47
2020/12/30 07:56:28;;;;;;;68.47;27.32;;;;;;;5.82;100.00;99663.36;1859025;75;22668;-47
2020/12/30 07:58:59;;;;;;;54.98;27.40;;;;;;;5.82;100.00;99664.70;1837499;77;21024;-48
2020/12/30 08:01:28;;;;;;;84.77;30.72;;;;;;;5.83;100.00;99676.69;1785740;80;21380;-46
2020/12/30 08:04:09;;;;;;;102.90;35.10;;;;;;;5.87;100.00;99676.13;1789829;78;21549;-45
2020/12/30 08:06:46;;;;;;;108.85;35.10;;;;;;;5.95;100.00;99670.08;1807786;76;22657;-47
2020/12/30 08:09:14;;;;;;;82.00;31.70;;;;;;;5.91;100.00;99672.01;1776256;77;20974;-49
2020/12/30 08:11:57;;;;;;;72.15;28.50;;;;;;;5.94;100.00;99667.00;1770543;79;21948;-49
2020/12/30 08:14:28;;;;;;;46.20;24.18;;;;;;;5.95;100.00;99668.75;1771019;79;21608;-49
2020/12/30 08:17:07;;;;;;;36.83;21.70;;;;;;;5.97;100.00;99661.56;1771455;79;21455;-48
2020/12/30 08:19:45;;;;;;;46.55;22.42;;;;;;;5.97;100.00;99668.25;1769934;79;21002;-50
2020/12/30 08:22:26;;;;;;;59.83;25.25;;;;;;;5.97;100.00;99674.94;1771706;79;20927;-50
2020/12/30 08:24:57;;;;;;;73.52;26.27;;;;;;;6.01;100.00;99673.89;1768348;79;21186;-50
2020/12/30 08:27:29;;;;;;;59.58;24.80;;;;;;;6.03;100.00;99669.38;1770400;79;21076;-50
2020/12/30 08:30:02;;;;;;;62.70;24.43;;;;;;;6.08;100.00;99670.11;1771814;79;21125;-53
2020/12/30 08:32:55;;;;;;;45.85;23.02;;;;;;;6.08;100.00;99675.46;1773394;79;21041;-52
2020/12/30 08:35:31;;;;;;;67.45;25.32;;;;;;;6.09;100.00;99672.31;1774017;79;21557;-49
2020/12/30 08:38:13;;;;;;;64.85;27.65;;;;;;;6.09;100.00;99662.48;1771655;79;21391;-48
2020/12/30 08:40:41;;;;;;;45.88;23.00;;;;;;;6.11;100.00;99655.73;1772485;79;21585;-50
2020/12/30 08:43:21;;;;;;;68.50;27.30;;;;;;;6.10;100.00;99657.53;1773047;79;21093;-48
2020/12/30 08:45:54;;;;;;;68.60;25.30;;;;;;;6.09;100.00;99658.47;1735210;81;21541;-51
2020/12/30 08:48:22;;;;;;;52.90;21.87;;;;;;;6.12;100.00;99662.83;1710055;82;21021;-49
2020/12/30 08:50:50;;;;;;;82.35;26.97;;;;;;;6.13;100.00;99657.45;1711816;82;21374;-50
2020/12/30 08:53:35;;;;;;;66.53;26.25;;;;;;;6.10;100.00;99662.89;1737609;81;21242;-51
2020/12/30 08:56:04;;;;;;;76.40;29.77;;;;;;;6.10;100.00;99654.86;1711558;82;21132;-52
2020/12/30 08:58:33;;;;;;;77.17;30.92;;;;;;;6.10;100.00;99648.16;1710993;82;21570;-50
2020/12/30 09:01:04;;;;;;;66.65;29.85;;;;;;;6.13;100.00;99651.22;1737113;81;21539;-53
2020/12/30 09:03:32;;;;;;;72.55;32.33;;;;;;;6.11;100.00;99650.37;1710235;82;21866;-53
2020/12/30 09:06:01;;;;;;;47.62;25.45;;;;;;;6.10;100.00;99644.14;1710933;82;21038;-52
2020/12/30 09:08:29;;;;;;;50.12;27.22;;;;;;;6.08;100.00;99648.69;1712242;82;21018;-53
2020/12/30 09:10:57;;;;;;;63.13;32.35;;;;;;;6.08;100.00;99642.47;1713377;82;21034;-51
2020/12/30 09:13:30;;;;;;;66.82;31.80;;;;;;;6.06;100.00;99639.81;1712538;83;21137;-50
2020/12/30 09:16:04;;;;;;;60.78;30.62;;;;;;;6.04;100.00;99637.20;1736414;81;21376;-48
2020/12/30 09:18:33;;;;;;;65.95;32.85;;;;;;;6.05;100.00;99647.44;1717623;83;21155;-49
2020/12/30 09:21:01;;;;;;;60.98;34.30;;;;;;;6.08;100.00;99640.66;1717571;83;21017;-50
2020/12/30 09:23:29;;;;;;;48.55;29.37;;;;;;;6.13;100.00;99639.17;1716859;83;21081;-51
2020/12/30 09:25:57;;;;;;;59.98;32.53;;;;;;;6.13;100.00;99632.47;1717048;81;21006;-48
2020/12/30 09:28:25;;;;;;;55.35;33.25;;;;;;;6.11;100.00;99639.20;1717391;83;21680;-49
2020/12/30 09:30:55;;;;;;;50.92;30.95;;;;;;;6.09;100.00;99630.82;1717305;81;21086;-49
2020/12/30 09:33:24;;;;;;;55.95;31.15;;;;;;;6.11;100.00;99625.81;1717657;83;21026;-52
2020/12/30 09:35:53;;;;;;;67.05;30.97;;;;;;;6.09;100.00;99626.34;1717272;83;21187;-49
2020/12/30 09:38:24;;;;;;;59.08;31.27;;;;;;;6.10;100.00;99620.05;1717477;82;21208;-50
2020/12/30 09:40:54;;;;;;;67.58;35.10;;;;;;;6.09;100.00;99607.59;1717431;83;21960;-50
2020/12/30 09:43:25;;;;;;;76.07;35.70;;;;;;;6.05;100.00;99609.96;1718093;82;21168;-55
2020/12/30 09:45:59;;;;;;;94.52;39.78;;;;;;;6.05;100.00;99608.62;1716979;83;21172;-49
2020/12/30 09:48:27;;;;;;;88.67;34.73;;;;;;;6.03;100.00;99614.50;1717290;82;21022;-51
2020/12/30 09:50:55;;;;;;;64.55;34.10;;;;;;;6.06;100.00;99614.38;1716824;81;21155;-50
2020/12/30 09:53:23;;;;;;;65.85;34.20;;;;;;;6.05;100.00;99613.98;1717539;83;22178;-48
2020/12/30 09:55:51;;;;;;;106.10;42.33;;;;;;;6.03;100.00;99607.81;1717082;83;21097;-45
2020/12/30 09:58:19;;;;;;;120.92;45.63;;;;;;;6.00;100.00;99598.53;1717278;83;21156;-49
2020/12/30 10:00:47;;;;;;;143.52;46.50;;;;;;;6.00;100.00;99594.05;1718218;83;21021;-51
2020/12/30 10:03:15;;;;;;;114.45;42.73;;;;;;;6.02;100.00;99595.36;1717612;81;21546;-49
2020/12/30 10:05:43;;;;;;;104.10;41.95;;;;;;;6.04;100.00;99599.72;1713795;82;22036;-53
2020/12/30 10:08:11;;;;;;;88.47;37.53;;;;;;;6.06;100.00;99594.30;1704706;82;21109;-51
2020/12/30 10:10:39;;;;;;;67.97;33.15;;;;;;;6.10;100.00;99597.30;1705622;82;21214;-47
2020/12/30 10:13:07;;;;;;;68.52;35.35;;;;;;;6.10;100.00;99590.60;1704822;83;21113;-50
2020/12/30 10:15:35;;;;;;;76.00;36.83;;;;;;;6.13;100.00;99586.96;1705077;82;20974;-54
2020/12/30 10:18:03;;;;;;;80.92;34.25;;;;;;;6.12;100.00;99596.77;1705613;82;22818;-48
2020/12/30 10:20:32;;;;;;;59.83;31.65;;;;;;;6.13;100.00;99594.52;1704929;82;21176;-49
2020/12/30 10:23:00;;;;;;;63.68;35.43;;;;;;;6.12;100.00;99590.54;1705153;82;21642;-49
2020/12/30 10:25:28;;;;;;;79.25;37.75;;;;;;;6.08;100.00;99584.44;1703935;84;21221;-49
2020/12/30 10:27:56;;;;;;;78.45;35.30;;;;;;;6.06;100.00;99588.95;1725947;81;21553;-45
2020/12/30 10:30:24;;;;;;;71.35;34.20;;;;;;;6.11;100.00;99585.66;1724827;81;21600;-50
2020/12/30 10:32:56;;;;;;;84.77;35.48;;;;;;;6.14;100.00;99581.55;1703952;82;21061;-52
2020/12/30 10:35:25;;;;;;;62.88;30.52;;;;;;;6.10;100.00;99577.22;1701687;82;21006;-50
2020/12/30 10:37:53;;;;;;;73.42;33.95;;;;;;;6.08;100.00;99568.38;1684727;82;21008;-56
2020/12/30 10:40:22;;;;;;;75.28;35.85;;;;;;;6.07;100.00;99571.95;1753624;79;21589;-56
2020/12/30 10:42:50;;;;;;;71.15;34.38;;;;;;;6.07;100.00;99565.27;1760115;79;21385;-57
2020/12/30 10:45:18;;;;;;;66.40;37.17;;;;;;;6.07;100.00;99569.28;1757821;79;21030;-56
2020/12/30 10:47:47;;;;;;;75.87;37.85;;;;;;;6.05;100.00;99569.81;1757192;79;20998;-55
2020/12/30 10:50:15;;;;;;;75.15;38.63;;;;;;;6.04;100.00;99570.28;1755545;79;21132;-63
2020/12/30 10:52:45;;;;;;;76.33;36.58;;;;;;;6.02;100.00;99571.27;1757278;79;21556;-60
2020/12/30 10:55:14;;;;;;;72.75;35.52;;;;;;;6.01;100.00;99572.17;1759753;79;21195;-59
2020/12/30 10:57:42;;;;;;;73.42;37.40;;;;;;;6.00;100.00;99562.40;1760031;79;21144;-57
2020/12/30 11:00:12;;;;;;;81.35;36.68;;;;;;;6.00;100.00;99563.73;1760454;79;21226;-59
2020/12/30 11:02:40;;;;;;;72.47;36.77;;;;;;;6.04;100.00;99559.56;1760596;79;20970;-59
2020/12/30 11:05:09;;;;;;;65.67;33.50;;;;;;;6.06;100.00;99554.62;1762002;79;21550;-58
2020/12/30 11:07:38;;;;;;;63.78;34.15;;;;;;;6.07;100.00;99555.89;1765751;79;21205;-54
2020/12/30 11:10:06;;;;;;;74.15;36.30;;;;;;;6.08;100.00;99552.78;1766615;79;21651;-60
2020/12/30 11:12:36;;;;;;;64.30;35.90;;;;;;;6.07;100.00;99554.55;1765437;79;21917;-61
2020/12/30 11:15:05;;;;;;;62.35;32.85;;;;;;;6.07;100.00;99550.54;1767076;79;21123;-58
2020/12/30 11:17:33;;;;;;;59.15;31.55;;;;;;;6.06;100.00;99538.09;1765712;79;21581;-53
2020/12/30 11:20:01;;;;;;;62.80;32.45;;;;;;;6.06;100.00;99543.44;1766857;81;22269;-58
2020/12/30 11:22:30;;;;;;;62.05;30.77;;;;;;;6.07;100.00;99541.64;1765240;79;21735;-60
2020/12/30 11:24:58;;;;;;;61.35;29.70;;;;;;;6.07;100.00;99539.83;1767258;81;21663;-59
2020/12/30 11:27:26;;;;;;;54.45;29.32;;;;;;;6.08;100.00;99538.93;1767929;79;21118;-55
2020/12/30 11:29:54;;;;;;;51.45;31.42;;;;;;;6.11;100.00;99536.13;1767216;81;21074;-57
2020/12/30 11:32:22;;;;;;;55.50;31.10;;;;;;;6.10;100.00;99534.38;1768104;79;21196;-57
2020/12/30 11:34:50;;;;;;;59.08;31.57;;;;;;;6.10;100.00;99530.37;1762909;79;21455;-51